• Join FlightAware (Why Join?)
  • Login
  • US Flag 
 
05:16AM EST


 

Airport Tracker/Info


-or-


 

Live Flight TrackerFlight Track Log ✈ EIN136 ✈ 30-Apr-2013 ✈ KBOS - EIDW / DUB

Flight Track Log - Related Links

Times and Time Zones

All times are in EDT time to prevent confusion due to time zone crossing. See the EIN136 flight status page for this flight to view local times or setup timezone preferences in your user account.

Time Position Orientation Groundspeed Altitude Reporting Facility
EDT Latitude Longitude Course Direction KTS MPH feet Rate Location/Type
06:25PM 42.3667 -70.9833 90° East 142 163 900  Level KA90
06:26PM 42.3667 -70.9333 90° East 152 175 2,400 2,400 Climbing KA90
06:32PM 42.6350 -70.5150 90° East 346 398 16,000 2,520 Climbing FlightAware
06:32PM 42.6830 -70.4490 45° Northeast 358 412 17,800 2,580 Climbing FlightAware
06:33PM 42.7340 -70.3770 46° Northeast 365 420 19,700 2,460 Climbing FlightAware
06:34PM 42.7820 -70.3100 46° Northeast 376 433 21,300 2,400 Climbing FlightAware
06:34PM 42.8310 -70.2400 46° Northeast 381 438 22,900 2,160 Climbing FlightAware
06:35PM 42.8840 -70.1650 46° Northeast 388 447 24,400 2,040 Climbing FlightAware
06:36PM 42.9380 -70.0900 45° Northeast 394 453 25,800 1,740 Climbing FlightAware
06:37PM 43.0480 -69.9330 46° Northeast 413 475 28,100 1,500 Climbing FlightAware
06:38PM 43.0930 -69.8690 46° Northeast 418 481 28,900 1,500 Climbing FlightAware
06:39PM 43.1610 -69.7720 46° Northeast 423 487 30,300 1,500 Climbing FlightAware
06:40PM 43.2790 -69.6020 46° Northeast 434 499 32,300 1,380 Climbing FlightAware
06:41PM 43.3350 -69.5210 46° Northeast 435 501 33,200 1,020 Climbing FlightAware
06:41PM 43.3910 -69.4400 46° Northeast 442 509 33,700 1,140 Climbing FlightAware
06:43PM 43.5070 -69.2700 47° Northeast 437 503 35,600 1,320 Climbing FlightAware
06:43PM 43.5620 -69.1900 46° Northeast 430 495 36,500 960 Climbing FlightAware
06:44PM 43.6270 -69.0950 47° Northeast 436 502 37,000 720 Climbing FlightAware
06:45PM 43.6810 -69.0150 47° Northeast 436 502 37,600 660 Climbing FlightAware
06:46PM 43.7610 -68.8970 47° Northeast 441 507 38,100 420 Climbing FlightAware
06:48PM 43.9220 -68.6580 47° Northeast 431 496 39,000 300 Climbing FlightAware
06:49PM 44.0110 -68.5260 47° Northeast 435 501 39,000  Level FlightAware
06:50PM 44.0650 -68.4430 48° Northeast 435 501 39,000  Level FlightAware
06:50PM 44.1250 -68.3540 47° Northeast 429 494 39,000  Level FlightAware
06:51PM 44.1810 -68.2700 47° Northeast 430 495 39,000  Level FlightAware
06:52PM 44.2420 -68.1760 48° Northeast 432 497 39,000  Level FlightAware
06:52PM 44.2980 -68.0920 47° Northeast 432 497 39,000  Level FlightAware
06:53PM 44.3510 -68.0110 48° Northeast 432 497 39,000  Level FlightAware
06:54PM 44.4130 -67.9150 48° Northeast 436 502 39,000  Level FlightAware
06:54PM 44.4670 -67.8330 47° Northeast 436 502 39,000  Level FlightAware
06:55PM 44.5270 -67.7420 47° Northeast 433 498 39,000  Level FlightAware
06:56PM 44.5830 -67.6550 48° Northeast 434 499 39,000  Level FlightAware
06:57PM 44.6360 -67.5720 48° Northeast 435 501 39,000  Level FlightAware
06:57PM 44.7000 -67.4740 47° Northeast 435 501 39,000  Level FlightAware
06:58PM 44.7480 -67.3970 49° Northeast 435 501 39,000  Level FlightAware
06:59PM 44.8300 -67.2700 48° Northeast 439 505 39,000  Level FlightAware
07:00PM 44.9250 -67.1210 48° Northeast 441 507 39,000  Level FlightAware
07:01PM 45.0160 -66.9680 50° Northeast 435 501 39,000  Level FlightAware
07:02PM 45.1090 -66.8130 50° Northeast 436 502 39,000  Level FlightAware
07:04PM 45.2020 -66.6590 49° Northeast 435 501 39,000  Level FlightAware
07:05PM 45.2930 -66.5040 50° Northeast 433 498 39,000  Level FlightAware
07:05PM 45.3390 -66.4260 50° Northeast 430 495 39,000  Level FlightAware
07:06PM 45.4040 -66.3170 50° Northeast 430 495 39,000  Level FlightAware
07:07PM 45.4940 -66.1640 50° Northeast 431 496 39,000  Level FlightAware
07:08PM 45.5840 -66.0090 50° Northeast 431 496 39,000  Level FlightAware
07:10PM 45.6730 -65.8570 50° Northeast 430 495 39,000  Level FlightAware
07:11PM 45.7620 -65.7030 50° Northeast 434 499 39,000  Level FlightAware
07:12PM 45.8530 -65.5450 50° Northeast 434 499 39,000  Level FlightAware
07:13PM 45.9090 -65.4450 51° Northeast 430 495 39,000  Level FlightAware
07:13PM 45.9590 -65.3580 50° Northeast 429 494 39,000  Level FlightAware
07:14PM 46.0020 -65.2820 51° Northeast 430 495 39,000  Level FlightAware
07:15PM 46.0850 -65.1350 51° Northeast 430 495 39,000  Level FlightAware
07:16PM 46.1320 -65.0550 50° Northeast 431 496 39,000  Level FlightAware
07:16PM 46.1750 -64.9800 50° Northeast 431 496 39,000  Level FlightAware
07:17PM 46.2190 -64.9050 50° Northeast 431 496 39,000  Level FlightAware
07:18PM 46.2620 -64.8300 50° Northeast 431 496 39,000  Level FlightAware
07:18PM 46.3060 -64.7550 50° Northeast 431 496 39,000  Level FlightAware
07:19PM 46.3600 -64.6610 50° Northeast 431 496 39,000  Level FlightAware
07:20PM 46.4040 -64.5860 50° Northeast 431 496 39,000  Level FlightAware
07:21PM 46.4470 -64.5100 51° Northeast 431 496 39,000  Level FlightAware
07:21PM 46.4910 -64.4350 50° Northeast 431 496 39,000  Level FlightAware
07:22PM 46.5450 -64.3400 50° Northeast 431 496 39,000  Level FlightAware
07:23PM 46.5890 -64.2650 49° Northeast 431 496 39,000  Level FlightAware
07:23PM 46.6330 -64.1890 50° Northeast 431 496 39,000  Level FlightAware
07:24PM 46.6760 -64.1140 50° Northeast 431 496 39,000  Level FlightAware
07:25PM 46.7200 -64.0380 50° Northeast 431 496 39,000  Level FlightAware
07:25PM 46.8333 -63.7167 50° Northeast 430 495 39,000  Level Gander Center
07:26PM 46.8667 -63.6833 34° Northeast 430 495 39,000  Level Moncton Center
07:27PM 46.9500 -63.5333 51° Northeast 430 495 39,000  Level Moncton Center
07:28PM 47.0167 -63.3833 57° Northeast 430 495 39,000  Level Moncton Center
07:29PM 47.1000 -63.2667 44° Northeast 430 495 39,000  Level Moncton Center
07:30PM 47.1667 -63.1167 57° Northeast 440 506 39,000  Level Moncton Center
07:31PM 47.2333 -62.9667 57° Northeast 440 506 39,000  Level Moncton Center
07:32PM 47.3167 -62.8167 51° Northeast 440 506 39,000  Level Moncton Center
07:33PM 47.3833 -62.6833 54° Northeast 440 506 39,000  Level Moncton Center
07:34PM 47.4667 -62.5333 51° Northeast 440 506 39,000  Level Moncton Center
07:35PM 47.5333 -62.3833 57° Northeast 440 506 39,000  Level Moncton Center
07:36PM 47.6167 -62.2333 50° Northeast 440 506 39,000  Level Moncton Center
07:37PM 47.6833 -62.1167 50° Northeast 440 506 39,000  Level Moncton Center
07:38PM 47.7500 -61.9500 59° Northeast 440 506 39,000  Level Moncton Center
07:38PM 47.8167 -61.8500 45° Northeast 440 506 39,000  Level Gander Center
07:39PM 47.8167 -61.8000 90° East 440 506 39,000  Level Moncton Center
07:39PM 47.8833 -61.7000 45° Northeast 440 506 39,000  Level Gander Center
07:41PM 47.9667 -61.5167 56° Northeast 440 506 39,000  Level Moncton Center
07:42PM 48.0500 -61.3833 47° Northeast 440 506 39,000  Level Moncton Center
07:43PM 48.1333 -61.2333 50° Northeast 440 506 39,000  Level Moncton Center
07:44PM 48.1833 -61.0833 63° Northeast 440 506 39,000  Level Moncton Center
07:45PM 48.2667 -60.9333 50° Northeast 440 506 39,000  Level Moncton Center
07:46PM 48.3333 -60.7667 59° Northeast 440 506 39,000  Level Moncton Center
07:47PM 48.4000 -60.6167 56° Northeast 440 506 39,000  Level Moncton Center
07:48PM 48.4667 -60.4833 53° Northeast 440 506 39,000  Level Moncton Center
07:49PM 48.5500 -60.3167 53° Northeast 440 506 39,000  Level Moncton Center
07:54PM 48.9590 -59.5040 53° Northeast 451 519 39,000  Level FlightAware
07:55PM 49.0370 -59.3340 55° Northeast 450 518 39,000  Level FlightAware
07:56PM 49.0780 -59.2450 55° Northeast 450 518 39,000  Level FlightAware
07:57PM 49.1760 -59.0300 55° Northeast 445 512 39,000  Level FlightAware
07:58PM 49.2480 -58.8690 56° Northeast 446 513 39,000  Level FlightAware
07:59PM 49.3110 -58.7280 56° Northeast 448 516 39,000  Level FlightAware
08:00PM 49.3720 -58.5910 56° Northeast 447 514 39,000  Level FlightAware
08:03PM 49.5810 -58.0890 57° Northeast 449 517 39,000  Level FlightAware
08:04PM 49.6000 -57.9667 57° Northeast 450 518 39,000  Level Moncton Center
08:05PM 49.6500 -57.8000 65° Northeast 450 518 39,000  Level Moncton Center
08:05PM 49.7000 -57.6833 56° Northeast 450 518 39,000  Level Gander Center
08:06PM 49.7500 -57.5333 63° Northeast 450 518 39,000  Level Gander Center
08:07PM 49.7667 -57.4500 73° East 450 518 39,000  Level Moncton Center
08:07PM 49.8167 -57.3500 52° Northeast 450 518 39,000  Level Gander Center
08:08PM 49.8333 -57.2833 69° East 450 518 39,000  Level Moncton Center
08:09PM 49.9000 -57.1167 58° Northeast 450 518 39,000  Level Moncton Center
08:15PM 50.2640 -56.0640 58° Northeast 454 522 39,000  Level FlightAware
08:15PM 50.2667 -55.9667 58° Northeast 460 529 39,000  Level Gander Center
08:16PM 50.2833 -55.9000 69° East 450 518 39,000  Level Moncton Center
08:16PM 50.3167 -55.7833 66° East 450 518 39,000  Level Gander Center
08:17PM 50.3500 -55.7333 44° Northeast 450 518 39,000  Level Moncton Center
08:17PM 50.3833 -55.6167 66° East 450 518 39,000  Level Gander Center
08:18PM 50.4333 -55.4167 69° East 450 518 39,000  Level Gander Center
08:24PM 50.7630 -54.4750 69° East 460 529 39,000  Level FlightAware
08:25PM 50.8370 -54.2280 65° Northeast 461 531 39,000  Level FlightAware
08:27PM 50.9170 -53.9600 65° Northeast 462 532 39,000  Level FlightAware
08:28PM 50.9590 -53.8190 65° Northeast 462 532 39,000  Level FlightAware
08:28PM 50.9950 -53.6950 65° Northeast 462 532 39,000  Level FlightAware
08:29PM 51.0350 -53.5580 65° Northeast 461 531 39,000  Level FlightAware
08:30PM 51.0710 -53.4370 65° Northeast 462 532 39,000  Level FlightAware
08:30PM 51.1080 -53.3110 65° Northeast 462 532 39,000  Level FlightAware
08:31PM 51.1570 -53.1410 65° Northeast 462 532 39,000  Level FlightAware
08:32PM 51.1880 -53.0360 65° Northeast 462 532 39,000  Level FlightAware
08:33PM 51.2180 -52.9300 66° East 462 532 39,000  Level FlightAware
08:33PM 51.2490 -52.8250 65° Northeast 462 532 39,000  Level FlightAware
08:34PM 51.2800 -52.7200 65° Northeast 462 532 39,000  Level FlightAware
08:35PM 51.3100 -52.6150 65° Northeast 462 532 39,000  Level FlightAware
08:35PM 51.3410 -52.5090 65° Northeast 462 532 39,000  Level FlightAware
08:36PM 51.3720 -52.4040 65° Northeast 462 532 39,000  Level FlightAware
08:37PM 51.4020 -52.2980 66° East 462 532 39,000  Level FlightAware
08:37PM 51.4410 -52.1660 65° Northeast 462 532 39,000  Level FlightAware
08:38PM 51.4720 -52.0600 65° Northeast 462 532 39,000  Level FlightAware
08:39PM 51.5020 -51.9550 65° Northeast 462 532 39,000  Level FlightAware
08:39PM 51.5330 -51.8490 65° Northeast 462 532 39,000  Level FlightAware
08:40PM 51.5710 -51.7160 65° Northeast 462 532 39,000  Level FlightAware
08:41PM 51.6333 -51.1500 65° Northeast 460 529 39,000  Level Gander Center
08:42PM 51.6833 -50.9500 68° East 470 541 39,000  Level Gander Center
08:43PM 51.7333 -50.7500 68° East 470 541 39,000  Level Gander Center
08:44PM 51.7833 -50.5833 64° Northeast 470 541 39,000  Level Gander Center
08:46PM 51.8833 -50.2000 67° East 510 587 39,000  Level Gander Center
08:47PM 51.9167 -50.1167 57° Northeast 490 564 39,000  Level Gander Center
08:48PM 51.9667 -49.9000 69° East 470 541 39,000  Level Gander Center
08:48PM 51.9833 -49.8167 72° East 460 529 39,000  Level Gander Center
08:50PM 52.0192 -49.5727 76° East  Level FlightAware Approximate
08:57PM 52.2157 -48.1618 77° East  Level FlightAware Approximate
08:58PM 52.2424 -47.9592 78° East  Level FlightAware Approximate
08:59PM 52.2687 -47.7564 78° East  Level FlightAware Approximate
09:00PM 52.2947 -47.5533 78° East  Level FlightAware Approximate
09:01PM 52.3204 -47.3501 78° East  Level FlightAware Approximate
09:02PM 52.3457 -47.1465 78° East  Level FlightAware Approximate
09:03PM 52.3706 -46.9428 79° East  Level FlightAware Approximate
09:04PM 52.3952 -46.7388 79° East  Level FlightAware Approximate
09:05PM 52.4195 -46.5346 79° East  Level FlightAware Approximate
09:06PM 52.4434 -46.3302 79° East  Level FlightAware Approximate
09:07PM 52.4669 -46.1255 79° East  Level FlightAware Approximate
09:08PM 52.4901 -45.9207 79° East  Level FlightAware Approximate
09:09PM 52.5129 -45.7156 80° East  Level FlightAware Approximate
09:10PM 52.5354 -45.5103 80° East  Level FlightAware Approximate
09:11PM 52.5575 -45.3048 80° East  Level FlightAware Approximate
09:12PM 52.5793 -45.0991 80° East  Level FlightAware Approximate
09:13PM 52.6007 -44.8932 80° East  Level FlightAware Approximate
09:14PM 52.6218 -44.6871 80° East  Level FlightAware Approximate
09:15PM 52.6425 -44.4808 81° East  Level FlightAware Approximate
09:16PM 52.6628 -44.2743 81° East  Level FlightAware Approximate
09:17PM 52.6828 -44.0676 81° East  Level FlightAware Approximate
09:18PM 52.7024 -43.8607 81° East  Level FlightAware Approximate
09:19PM 52.7217 -43.6537 81° East  Level FlightAware Approximate
09:20PM 52.7406 -43.4464 81° East  Level FlightAware Approximate
09:21PM 52.7591 -43.2390 82° East  Level FlightAware Approximate
09:22PM 52.7773 -43.0314 82° East  Level FlightAware Approximate
09:23PM 52.7951 -42.8237 82° East  Level FlightAware Approximate
09:24PM 52.8125 -42.6157 82° East  Level FlightAware Approximate
09:25PM 52.8296 -42.4076 82° East  Level FlightAware Approximate
09:26PM 52.8463 -42.1994 82° East  Level FlightAware Approximate
09:27PM 52.8627 -41.9909 83° East  Level FlightAware Approximate
09:28PM 52.8787 -41.7824 83° East  Level FlightAware Approximate
09:29PM 52.8943 -41.5736 83° East  Level FlightAware Approximate
09:30PM 52.9095 -41.3648 83° East  Level FlightAware Approximate
09:31PM 52.9244 -41.1557 83° East  Level FlightAware Approximate
09:32PM 52.9390 -40.9466 83° East  Level FlightAware Approximate
09:33PM 52.9531 -40.7373 84° East  Level FlightAware Approximate
09:34PM 52.9669 -40.5278 84° East  Level FlightAware Approximate
09:35PM 52.9803 -40.3183 84° East  Level FlightAware Approximate
09:36PM 52.9934 -40.1086 84° East  Level FlightAware Approximate
09:37PM 53.0144 -39.9001 76° East  Level FlightAware Approximate
09:38PM 53.0438 -39.6948 77° East  Level FlightAware Approximate
09:39PM 53.0728 -39.4893 77° East  Level FlightAware Approximate
09:40PM 53.1015 -39.2834 77° East  Level FlightAware Approximate
09:41PM 53.1298 -39.0773 77° East  Level FlightAware Approximate
09:42PM 53.1577 -38.8709 77° East  Level FlightAware Approximate
09:43PM 53.1853 -38.6642 77° East  Level FlightAware Approximate
09:44PM 53.2126 -38.4573 78° East  Level FlightAware Approximate
09:45PM 53.2394 -38.2501 78° East  Level FlightAware Approximate
09:46PM 53.2659 -38.0427 78° East  Level FlightAware Approximate
09:47PM 53.2921 -37.8350 78° East  Level FlightAware Approximate
09:48PM 53.3179 -37.6271 78° East  Level FlightAware Approximate
09:49PM 53.3433 -37.4189 78° East  Level FlightAware Approximate
09:50PM 53.3684 -37.2104 79° East  Level FlightAware Approximate
09:51PM 53.3931 -37.0017 79° East  Level FlightAware Approximate
09:52PM 53.4174 -36.7928 79° East  Level FlightAware Approximate
09:53PM 53.4414 -36.5836 79° East  Level FlightAware Approximate
09:54PM 53.4650 -36.3742 79° East  Level FlightAware Approximate
09:55PM 53.4883 -36.1646 79° East  Level FlightAware Approximate
09:56PM 53.5111 -35.9547 80° East  Level FlightAware Approximate
09:57PM 53.5336 -35.7446 80° East  Level FlightAware Approximate
09:58PM 53.5558 -35.5343 80° East  Level FlightAware Approximate
09:59PM 53.5776 -35.3238 80° East  Level FlightAware Approximate
10:00PM 53.5990 -35.1131 80° East  Level FlightAware Approximate
10:01PM 53.6200 -34.9021 80° East  Level FlightAware Approximate
10:02PM 53.6407 -34.6909 81° East  Level FlightAware Approximate
10:03PM 53.6609 -34.4796 81° East  Level FlightAware Approximate
10:04PM 53.6809 -34.2680 81° East  Level FlightAware Approximate
10:05PM 53.7004 -34.0562 81° East  Level FlightAware Approximate
10:06PM 53.7196 -33.8443 81° East  Level FlightAware Approximate
10:07PM 53.7383 -33.6321 81° East  Level FlightAware Approximate
10:08PM 53.7568 -33.4198 82° East  Level FlightAware Approximate
10:09PM 53.7748 -33.2073 82° East  Level FlightAware Approximate
10:10PM 53.7925 -32.9945 82° East  Level FlightAware Approximate
10:11PM 53.8098 -32.7817 82° East  Level FlightAware Approximate
10:12PM 53.8267 -32.5686 82° East  Level FlightAware Approximate
10:13PM 53.8432 -32.3554 82° East  Level FlightAware Approximate
10:14PM 53.8594 -32.1420 83° East  Level FlightAware Approximate
10:15PM 53.8751 -31.9284 83° East  Level FlightAware Approximate
10:16PM 53.8905 -31.7147 83° East  Level FlightAware Approximate
10:17PM 53.9056 -31.5008 83° East  Level FlightAware Approximate
10:18PM 53.9202 -31.2868 83° East  Level FlightAware Approximate
10:19PM 53.9345 -31.0727 83° East  Level FlightAware Approximate
10:20PM 53.9483 -30.8583 84° East  Level FlightAware Approximate
10:21PM 53.9618 -30.6439 84° East  Level FlightAware Approximate
10:22PM 53.9749 -30.4293 84° East  Level FlightAware Approximate
10:23PM 53.9877 -30.2146 84° East  Level FlightAware Approximate
10:24PM 54.0000 -29.9997 86° East  Level FlightAware Approximate
10:25PM 54.0088 -29.7843 86° East  Level FlightAware Approximate
10:26PM 54.0172 -29.5688 86° East  Level FlightAware Approximate
10:27PM 54.0252 -29.3532 86° East  Level FlightAware Approximate
10:28PM 54.0328 -29.1375 86° East  Level FlightAware Approximate
10:29PM 54.0400 -28.9217 87° East  Level FlightAware Approximate
10:30PM 54.0468 -28.7059 87° East  Level FlightAware Approximate
10:31PM 54.0533 -28.4900 87° East  Level FlightAware Approximate
10:32PM 54.0593 -28.2741 87° East  Level FlightAware Approximate
10:33PM 54.0650 -28.0581 87° East  Level FlightAware Approximate
10:34PM 54.0703 -27.8420 88° East  Level FlightAware Approximate
10:35PM 54.0752 -27.6258 88° East  Level FlightAware Approximate
10:36PM 54.0797 -27.4097 88° East  Level FlightAware Approximate
10:37PM 54.0839 -27.1934 88° East  Level FlightAware Approximate
10:38PM 54.0876 -26.9772 88° East  Level FlightAware Approximate
10:39PM 54.0910 -26.7609 88° East  Level FlightAware Approximate
10:40PM 54.0939 -26.5445 89° East  Level FlightAware Approximate
10:41PM 54.0965 -26.3282 89° East  Level FlightAware Approximate
10:42PM 54.0987 -26.1118 89° East  Level FlightAware Approximate
10:43PM 54.1005 -25.8954 89° East  Level FlightAware Approximate
10:44PM 54.1019 -25.6790 89° East  Level FlightAware Approximate
10:45PM 54.1029 -25.4625 89° East  Level FlightAware Approximate
10:46PM 54.1036 -25.2461 90° East  Level FlightAware Approximate
10:47PM 54.1038 -25.0296 90° East  Level FlightAware Approximate
10:48PM 54.1037 -24.8132 90° East  Level FlightAware Approximate
10:49PM 54.1031 -24.5967 90° East  Level FlightAware Approximate
10:50PM 54.1022 -24.3803 90° East  Level FlightAware Approximate
10:51PM 54.1009 -24.1639 91° East  Level FlightAware Approximate
10:52PM 54.0992 -23.9474 91° East  Level FlightAware Approximate
10:53PM 54.0971 -23.7311 91° East  Level FlightAware Approximate
10:54PM 54.0947 -23.5147 91° East  Level FlightAware Approximate
10:55PM 54.0918 -23.2983 91° East  Level FlightAware Approximate
10:56PM 54.0886 -23.0820 91° East  Level FlightAware Approximate
10:57PM 54.0849 -22.8657 92° East  Level FlightAware Approximate
10:58PM 54.0809 -22.6495 92° East  Level FlightAware Approximate
10:59PM 54.0765 -22.4333 92° East  Level FlightAware Approximate
11:00PM 54.0717 -22.2172 92° East  Level FlightAware Approximate
11:01PM 54.0665 -22.0011 92° East  Level FlightAware Approximate
11:02PM 54.0609 -21.7850 92° East  Level FlightAware Approximate
11:03PM 54.0550 -21.5691 93° East  Level FlightAware Approximate
11:04PM 54.0486 -21.3532 93° East  Level FlightAware Approximate
11:05PM 54.0419 -21.1373 93° East  Level FlightAware Approximate
11:06PM 54.0348 -20.9216 93° East  Level FlightAware Approximate
11:07PM 54.0273 -20.7059 93° East  Level FlightAware Approximate
11:08PM 54.0194 -20.4902 93° East  Level FlightAware Approximate
11:09PM 54.0111 -20.2747 94° East  Level FlightAware Approximate
11:10PM 54.0024 -20.0593 94° East  Level FlightAware Approximate
11:11PM 54.0021 -19.8435 89° East  Level FlightAware Approximate
11:12PM 54.0047 -19.6276 89° East  Level FlightAware Approximate
11:13PM 54.0069 -19.4117 89° East  Level FlightAware Approximate
11:14PM 54.0086 -19.1958 89° East  Level FlightAware Approximate
11:15PM 54.0101 -18.9798 89° East  Level FlightAware Approximate
11:16PM 54.0111 -18.7639 89° East  Level FlightAware Approximate
11:17PM 54.0117 -18.5479 90° East  Level FlightAware Approximate
11:18PM 54.0120 -18.3319 90° East  Level FlightAware Approximate
11:19PM 54.0118 -18.1159 90° East  Level FlightAware Approximate
11:20PM 54.0113 -17.9000 90° East  Level FlightAware Approximate
11:21PM 54.0103 -17.6807 90° East  Level FlightAware Approximate
11:22PM 54.0090 -17.4614 91° East  Level FlightAware Approximate
11:23PM 54.0073 -17.2421 91° East  Level FlightAware Approximate
11:23PM 54.0010 -14.3670 91° East 514 592 40,000  Level FlightAware
11:24PM 54.0052 -17.0228 91° East  Level FlightAware Approximate
11:24PM 54.0010 -14.2100 90° East 515 593 40,000  Level FlightAware
11:25PM 54.0000 -13.9890 90° East 516 594 40,000  Level FlightAware
11:25PM 53.9990 -13.8160 90° East 515 593 40,000  Level FlightAware
11:26PM 53.9980 -13.6430 90° East 517 595 40,000  Level FlightAware
11:27PM 53.9960 -13.4780 91° East 518 596 40,000  Level FlightAware
11:27PM 53.9940 -13.2960 91° East 517 595 40,000  Level FlightAware
11:28PM 53.9930 -13.1320 91° East 516 594 40,000  Level FlightAware
11:29PM 53.9900 -12.9540 92° East 515 593 40,000  Level FlightAware
11:29PM 53.9880 -12.7940 91° East 514 592 40,000  Level FlightAware
11:30PM 53.9860 -12.6300 91° East 513 590 40,000  Level FlightAware
11:31PM 53.9820 -12.4500 92° East 514 592 40,000  Level FlightAware
11:32PM 53.9790 -12.2860 92° East 515 593 40,000  Level FlightAware
11:32PM 53.9760 -12.1280 92° East 515 593 40,000  Level FlightAware
11:33PM 53.9720 -11.9450 92° East 516 594 40,000  Level FlightAware
11:34PM 53.9690 -11.7820 92° East 515 593 40,000  Level FlightAware
11:34PM 53.9650 -11.6030 92° East 513 590 40,000  Level FlightAware
11:35PM 53.9600 -11.4420 93° East 511 588 40,000  Level FlightAware
11:36PM 53.9560 -11.2640 92° East 510 587 40,000  Level FlightAware
11:36PM 53.9510 -11.1020 93° East 511 588 40,000 -480 Level FlightAware
11:37PM 53.9460 -10.9410 93° East 510 587 39,400 -960 Descending FlightAware
11:38PM 53.9410 -10.7640 93° East 510 587 38,700 -1,020 Descending FlightAware
11:39PM 53.9360 -10.6010 93° East 516 594 38,000 -1,020 Descending FlightAware
11:39PM 53.9300 -10.4230 93° East 510 587 37,300 -1,020 Descending FlightAware
11:40PM 53.9240 -10.2620 94° East 511 588 36,600 -1,680 Descending FlightAware
11:41PM 53.9170 -10.0830 94° East 512 589 35,000 -2,280 Descending FlightAware
11:41PM 53.9110 -9.9200 94° East 510 587 33,400 -2,220 Descending FlightAware
11:42PM 53.9050 -9.7630 94° East 510 587 32,100 -1,860 Descending FlightAware
11:43PM 53.8980 -9.5850 94° East 502 578 30,800 -1,860 Descending FlightAware
11:43PM 53.8910 -9.4300 94° East 492 566 29,500 -1,980 Descending FlightAware
11:44PM 53.8850 -9.2800 94° East 483 556 28,200 -2,100 Descending FlightAware
11:45PM 53.8770 -9.1090 94° East 471 542 26,600 -3,300 Descending FlightAware
11:45PM 53.8708 -8.9795 94° East 406 467 24,000 -1,800 Descending FlightAware UK
11:46PM 53.8700 -8.9670 94° East 460 529 25,400 -2,040 Climbing FlightAware
11:46PM 53.8668 -8.8938 94° East 402 463 23,200 -4,800 Descending FlightAware UK
11:46PM 53.8636 -8.8295 95° East 396 456 22,700 1,620 Descending FlightAware UK
11:46PM 53.8630 -8.8080 95° East 447 514 24,000 -1,800 Climbing FlightAware
11:47PM 53.8590 -8.7276 95° East 390 449 21,800 -4,380 Descending FlightAware UK
11:47PM 53.8559 -8.6661 95° East 386 444 21,300 2,820 Descending FlightAware UK
11:47PM 53.8560 -8.6700 95° East 435 501 22,800 -2,040 Climbing FlightAware
11:47PM 53.8529 -8.6057 95° East 382 440 20,700 -4,740 Descending FlightAware UK
11:48PM 53.8498 -8.5452 95° East 378 435 20,200 -1,680 Descending FlightAware UK
11:48PM 53.8470 -8.4866 95° East 382 440 19,700 -1,680 Descending FlightAware UK
11:48PM 53.8441 -8.4268 95° East 388 447 19,200 1,020 Descending FlightAware UK
11:48PM 53.8410 -8.3790 95° East 421 484 20,300 -1,860 Climbing FlightAware
11:49PM 53.8379 -8.3079 95° East 380 437 18,100 -4,320 Descending FlightAware UK
11:49PM 53.8346 -8.2495 95° East 374 430 17,600 3,000 Descending FlightAware UK
11:49PM 53.8350 -8.2510 95° East 409 471 19,100 -2,040 Climbing FlightAware
11:49PM 53.8316 -8.1919 95° East 370 426 17,000 -4,620 Descending FlightAware UK
11:50PM 53.8287 -8.1361 95° East 366 421 16,500 -1,680 Descending FlightAware UK
11:50PM 53.8254 -8.0795 96° East 360 414 16,000 -1,860 Descending FlightAware UK
11:50PM 53.8221 -8.0238 96° East 358 412 15,400 -1,860 Descending FlightAware UK
11:51PM 53.8193 -7.9697 95° East 358 412 14,900 -1,860 Descending FlightAware UK
11:51PM 53.8161 -7.9146 96° East 354 407 14,300 -1,860 Descending FlightAware UK
11:51PM 53.8128 -7.8600 96° East 350 403 13,800 -1,680 Descending FlightAware UK
11:51PM 53.8098 -7.8060 95° East 346 398 13,300 -1,860 Descending FlightAware UK
11:52PM 53.8069 -7.7530 95° East 344 396 12,700 -1,200 Descending FlightAware UK
11:52PM 53.8035 -7.6993 96° East 334 384 12,600 -540 Descending FlightAware UK
11:52PM 53.7993 -7.6506 98° East 322 371 12,400 -720 Descending FlightAware UK
11:53PM 53.7921 -7.6050 105° East 312 359 12,200 -1,200 Descending FlightAware UK
11:53PM 53.7850 -7.5567 104° East 308 354 11,700 -1,680 Descending FlightAware UK
11:53PM 53.7791 -7.5105 102° East 306 352 11,200 -1,680 Descending FlightAware UK
11:54PM 53.7727 -7.4629 103° East 306 352 10,700 -1,380 Descending FlightAware UK
11:54PM 53.7667 -7.4167 102° East 302 348 10,400 -1,380 Descending FlightAware UK
11:54PM 53.7607 -7.3709 102° East 302 348 9,900 -1,380 Descending FlightAware UK
11:54PM 53.7547 -7.3260 103° East 302 348 9,600 -1,380 Descending FlightAware UK
11:55PM 53.7484 -7.2805 103° East 1 1 9,100 -1,680 Descending FlightAware UK
11:55PM 53.7428 -7.2369 102° East 1 1 8,600 -1,500 Descending FlightAware UK
11:55PM 53.7368 -7.1923 103° East 1 1 8,200 -1,200 Descending FlightAware UK
11:56PM 53.7309 -7.1482 103° East 1 1 7,900 4,080 Descending FlightAware UK
11:56PM 53.7330 -7.1620 103° East 316 364 9,500 -1,380 Climbing FlightAware
11:56PM 53.7251 -7.1048 103° East 1 1 7,500 -4,140 Descending FlightAware UK
11:56PM 53.7193 -7.0618 103° East 1 1 7,100 -1,380 Descending FlightAware UK
11:57PM 53.7136 -7.0200 103° East 1 1 6,700 3,600 Descending FlightAware UK
11:57PM 53.7150 -7.0320 103° East 306 352 8,300 -1,380 Climbing FlightAware
11:57PM 53.7077 -6.9778 103° East 1 1 6,300 -4,440 Descending FlightAware UK
11:57PM 53.7023 -6.9376 103° East 1 1 5,800 -1,500 Descending FlightAware UK
11:57PM 53.6968 -6.8969 103° East 1 1 5,400 -1,380 Descending FlightAware UK
11:58PM 53.6914 -6.8549 102° East 1 1 5,000 -1,500 Descending FlightAware UK
11:58PM 53.6866 -6.8139 101° East 1 1 4,500 -1,500 Descending FlightAware UK
11:58PM 53.6817 -6.7725 101° East 1 1 4,100 -1,200 Descending FlightAware UK
11:59PM 53.6768 -6.7312 101° East 1 1 3,800 -720 Descending FlightAware UK
11:59PM 53.6718 -6.6895 101° East 1 1 3,700 -540 Descending FlightAware UK
11:59PM 53.6671 -6.6497 101° East 1 1 3,500 -540 Descending FlightAware UK
12:00AM 53.6628 -6.6126 101° East 1 1 3,400 -540 Descending FlightAware UK
12:00AM 53.6580 -6.5728 101° East 1 1 3,200 -360 Descending FlightAware UK
12:00AM 53.6533 -6.5353 102° East 264 304 3,200 -540 Level FlightAware UK
12:00AM 53.6479 -6.4969 103° East 262 302 2,900 3,420 Descending FlightAware UK
12:00AM 53.6460 -6.4940 103° East 283 326 4,400 -1,680 Climbing FlightAware
12:01AM 53.6385 -6.4591 103° East 262 302 2,400 -1,200 Descending FlightAware UK
12:01AM 53.6330 -6.4310 109° East 282 325 3,800 -1,020 Climbing FlightAware
12:01AM 53.6309 -6.4226 109° East 264 304 2,100 -6,840 Descending FlightAware UK
12:01AM 53.6258 -6.3977 109° East 1 1 2,100 3,060 Level FlightAware UK
12:01AM 53.6200 -6.3690 109° East 279 321 3,500 -600 Climbing FlightAware
12:02AM 53.6130 -6.3344 109° East 1 1 1,800 -480 Descending FlightAware UK
12:02AM 53.6100 -6.3200 109° East 278 320 3,300 -540 Climbing FlightAware
12:02AM 53.6031 -6.2843 109° East 1 1 1,600 -420 Descending FlightAware UK
12:02AM 53.5980 -6.2590 109° East 274 315 3,100 -360 Climbing FlightAware
12:02AM 53.5957 -6.2483 109° East 1 1 1,500 -7,200 Descending FlightAware UK
12:03AM 53.5907 -6.2240 109° East 1 1 1,300 3,000 Descending FlightAware UK
12:03AM 53.5850 -6.2070 109° East 275 316 2,600 1,020 Climbing FlightAware
12:03AM 53.5680 -6.1530 118° Southeast 273 314 2,000 -1,080 Descending FlightAware
12:04AM 53.5560 -6.1160 119° Southeast 270 311 1,700 -360 Descending FlightAware
12:04AM 53.5380 -6.0580 118° Southeast 271 312 1,700  Level FlightAware
12:06AM 53.4210 -6.0130 167° South 172 198 1,700  Level FlightAware
12:07AM 53.4150 -6.0290 238° Southwest 157 181 1,700  Level FlightAware
12:07AM 53.4110 -6.0900 264° West 149 171 1,700 -120 Level FlightAware
12:08AM 53.4130 -6.1180 277° West 137 158 1,600 -660 Descending FlightAware
12:09AM 53.4160 -6.1750 275° West 115 132 800 -600 Descending FlightAware
12:10AM 53.4180 -6.2330 273° West 117 135 400 -420 Descending FlightAware
12:13AM 53.4167 -6.2667 102° East  Level FlightAware Approximate
12:14AM 53.4213 -6.2701 102° East  Level Estimated
12:15AM 53.4167 -6.2667 102° East  Level FlightAware Approximate